createdAt,value
2019-05-12T00:01:58.891Z,3.27
2019-05-12T00:07:06.042Z,2.57
2019-05-12T00:12:11.479Z,2.50
2019-05-12T00:17:18.768Z,3.10
2019-05-12T00:22:25.670Z,3.50
2019-05-12T00:27:31.003Z,2.50
2019-05-12T00:32:38.442Z,3.10
2019-05-12T00:37:43.109Z,2.80
2019-05-12T00:42:51.540Z,2.70
2019-05-12T00:47:59.076Z,3.20
2019-05-12T00:53:04.453Z,2.97
2019-05-12T00:58:10.007Z,3.00
2019-05-12T01:03:18.955Z,3.20
2019-05-12T01:08:28.083Z,2.70
2019-05-12T01:13:34.083Z,3.03
2019-05-12T01:18:39.603Z,3.57
2019-05-12T01:23:56.341Z,2.83
2019-05-12T01:28:51.980Z,2.97
2019-05-12T01:33:58.581Z,3.57
2019-05-12T01:39:08.262Z,2.97
2019-05-12T01:44:14.079Z,3.30
2019-05-12T01:49:19.529Z,3.50
2019-05-12T01:54:24.835Z,3.40
2019-05-12T01:59:31.968Z,4.20
2019-05-12T02:04:58.789Z,3.70
2019-05-12T02:10:05.180Z,3.33
2019-05-12T02:15:10.663Z,3.20
2019-05-12T02:20:18.111Z,3.80
2019-05-12T02:25:23.626Z,4.33
2019-05-12T02:30:30.259Z,3.87
2019-05-12T02:35:36.355Z,3.90
2019-05-12T02:40:44.677Z,3.43
2019-05-12T02:45:48.839Z,4.00
2019-05-12T02:50:54.588Z,4.37
2019-05-12T02:56:04.732Z,4.27
2019-05-12T03:01:09.491Z,4.23
2019-05-12T03:06:15.342Z,3.90
2019-05-12T03:11:21.189Z,4.30
2019-05-12T03:16:27.499Z,3.67
2019-05-12T03:21:35.285Z,4.50
2019-05-12T03:26:39.571Z,4.13
2019-05-12T03:31:48.815Z,4.83
2019-05-12T03:36:58.046Z,4.20
2019-05-12T03:41:59.633Z,4.87
2019-05-12T03:47:08.243Z,3.87
2019-05-12T03:52:15.365Z,4.53
2019-05-12T03:57:20.879Z,4.00
2019-05-12T04:02:26.891Z,4.30
2019-05-12T04:07:34.493Z,3.73
2019-05-12T04:12:40.854Z,3.97
2019-05-12T04:17:46.372Z,4.10
2019-05-12T04:22:54.467Z,3.67
2019-05-12T04:27:58.565Z,3.40
2019-05-12T04:33:04.917Z,3.10
2019-05-12T04:38:10.555Z,2.80
2019-05-12T04:43:15.681Z,2.90
2019-05-12T04:48:21.674Z,2.90
2019-05-12T04:53:28.189Z,2.33
2019-05-12T04:58:35.081Z,2.30
2019-05-12T05:03:40.678Z,2.70
2019-05-12T05:08:45.927Z,3.03
2019-05-12T05:13:51.077Z,2.77
2019-05-12T05:18:56.508Z,3.00
2019-05-12T05:24:03.793Z,2.70
2019-05-12T05:29:08.667Z,2.90
2019-05-12T05:34:15.153Z,3.07
2019-05-12T05:39:20.608Z,2.90
2019-05-12T05:44:29.192Z,2.63
2019-05-12T05:49:34.273Z,3.07
2019-05-12T05:54:40.184Z,3.23
2019-05-12T05:59:45.460Z,3.40
2019-05-12T06:04:54.088Z,3.60
2019-05-12T06:09:58.353Z,3.50
2019-05-12T06:15:04.238Z,3.00
2019-05-12T06:20:09.696Z,3.03
2019-05-12T06:25:16.101Z,2.90
2019-05-12T06:30:24.147Z,3.60
2019-05-12T06:35:30.978Z,3.70
2019-05-12T06:40:40.839Z,3.70
2019-05-12T06:45:45.529Z,3.83
2019-05-12T06:50:50.365Z,4.07
2019-05-12T06:55:55.879Z,4.97
2019-05-12T07:01:10.394Z,5.93
2019-05-12T07:06:17.919Z,5.10
2019-05-12T07:11:19.947Z,5.10
2019-05-12T07:16:29.959Z,5.23
2019-05-12T07:21:33.517Z,6.03
2019-05-12T07:26:39.786Z,5.90
2019-05-12T07:31:45.553Z,5.33
2019-05-12T07:36:54.096Z,5.10
2019-05-12T07:42:03.614Z,5.40
2019-05-12T07:47:09.419Z,5.10
2019-05-12T07:52:15.521Z,4.27
2019-05-12T07:57:21.221Z,5.30
2019-05-12T08:02:31.671Z,4.73
2019-05-12T08:07:34.958Z,5.23
2019-05-12T08:12:40.639Z,5.00
2019-05-12T08:17:49.193Z,4.80
2019-05-12T08:22:59.639Z,4.33
2019-05-12T08:28:14.132Z,4.70
2019-05-12T08:33:10.391Z,4.70
2019-05-12T08:38:15.789Z,4.40
2019-05-12T08:43:24.087Z,4.13
2019-05-12T08:48:29.080Z,4.03
2019-05-12T08:53:34.613Z,4.20
2019-05-12T08:58:48.289Z,3.73
2019-05-12T09:03:48.145Z,3.43
2019-05-12T09:08:55.061Z,3.33
2019-05-12T09:14:03.581Z,3.33
2019-05-12T09:19:15.529Z,4.33
2019-05-12T09:24:21.968Z,3.30
2019-05-12T09:29:25.428Z,3.00
2019-05-12T09:34:33.607Z,2.80
2019-05-12T09:39:42.866Z,3.83
2019-05-12T09:44:45.917Z,3.20
2019-05-12T09:49:53.592Z,2.57
2019-05-12T09:55:00.046Z,3.07
2019-05-12T10:00:06.186Z,2.13
2019-05-12T10:05:14.389Z,2.17
2019-05-12T10:10:21.245Z,2.47
2019-05-12T10:15:30.598Z,2.60
2019-05-12T10:20:39.657Z,2.37
2019-05-12T10:25:44.541Z,2.37
2019-05-12T10:30:55.268Z,2.53
2019-05-12T10:36:06.808Z,2.10
2019-05-12T10:41:13.329Z,2.00
2019-05-12T10:46:23.230Z,2.40
2019-05-12T10:51:25.994Z,2.30
2019-05-12T10:56:38.292Z,2.13
2019-05-12T11:01:48.842Z,2.00
2019-05-12T11:06:54.627Z,2.23
2019-05-12T11:12:00.317Z,1.90
2019-05-12T11:17:10.051Z,1.87
2019-05-12T11:22:15.289Z,1.60
2019-05-12T11:27:23.964Z,1.50
2019-05-12T11:32:33.596Z,1.70
2019-05-12T11:37:36.140Z,2.10
2019-05-12T11:42:46.803Z,2.60
2019-05-12T11:47:49.553Z,2.27
2019-05-12T11:52:55.856Z,2.50
2019-05-12T11:58:06.901Z,1.53
2019-05-12T12:03:12.961Z,2.13
2019-05-12T12:08:18.938Z,1.90
2019-05-12T12:13:29.942Z,2.20
2019-05-12T12:18:34.187Z,2.10
2019-05-12T12:23:41.039Z,1.97
2019-05-12T12:28:49.048Z,1.53
2019-05-12T12:33:54.916Z,1.50
2019-05-12T12:39:04.052Z,1.63
2019-05-12T12:44:13.635Z,1.80
2019-05-12T12:49:19.526Z,1.57
2019-05-12T12:54:24.818Z,1.77
2019-05-12T12:59:33.245Z,2.00
2019-05-12T13:04:45.160Z,1.63
2019-05-12T13:09:47.485Z,1.70
2019-05-12T13:14:53.327Z,1.50
2019-05-12T13:19:59.604Z,2.50
2019-05-12T13:25:08.601Z,1.67
2019-05-12T13:30:21.231Z,1.80
2019-05-12T13:35:24.694Z,1.50
2019-05-12T13:40:37.635Z,1.60
2019-05-12T13:45:39.070Z,1.50
2019-05-12T13:50:46.594Z,1.50
2019-05-12T13:55:53.746Z,1.50
2019-05-12T14:01:13.394Z,1.30
2019-05-12T14:06:07.275Z,1.50
2019-05-12T14:11:12.834Z,1.57
2019-05-12T14:16:18.591Z,1.63
2019-05-12T14:21:25.267Z,1.40
2019-05-12T14:26:30.810Z,1.50
2019-05-12T14:31:45.322Z,1.43
2019-05-12T14:36:43.384Z,1.67
2019-05-12T14:41:52.994Z,1.67
2019-05-12T14:46:57.185Z,1.30
2019-05-12T14:52:03.406Z,1.60
2019-05-12T14:57:13.773Z,1.77
2019-05-12T15:02:24.555Z,1.47
2019-05-12T15:07:26.467Z,1.30
2019-05-12T15:12:33.560Z,1.40
2019-05-12T15:17:39.006Z,1.90
2019-05-12T15:22:51.375Z,1.80
2019-05-12T15:27:51.332Z,1.47
2019-05-12T15:33:00.288Z,1.63
2019-05-12T15:38:09.403Z,2.07
2019-05-12T15:43:13.805Z,1.50
2019-05-12T15:48:20.147Z,1.50
2019-05-12T15:53:27.083Z,1.77
2019-05-12T15:58:33.916Z,1.27
2019-05-12T16:03:39.774Z,1.87
2019-05-12T16:08:47.624Z,1.80
2019-05-12T16:13:59.037Z,1.43
2019-05-12T16:19:00.974Z,1.90
2019-05-12T16:24:11.019Z,1.60
2019-05-12T16:29:13.818Z,1.67
2019-05-12T16:34:19.210Z,1.47
2019-05-12T16:39:30.558Z,2.00
2019-05-12T16:44:34.854Z,1.70
2019-05-12T16:49:44.579Z,1.60
2019-05-12T16:54:54.796Z,1.67
2019-05-12T17:00:06.735Z,1.93
2019-05-12T17:05:15.658Z,1.80
2019-05-12T17:10:18.207Z,1.77
2019-05-12T17:15:24.923Z,1.83
2019-05-12T17:20:33.040Z,1.53
2019-05-12T17:25:42.244Z,1.50
2019-05-12T17:30:50.505Z,1.50
2019-05-12T17:36:02.037Z,1.73
2019-05-12T17:41:04.691Z,1.50
2019-05-12T17:46:17.813Z,1.80
2019-05-12T17:51:23.899Z,1.80
2019-05-12T17:56:33.986Z,2.10
2019-05-12T18:01:37.122Z,2.20
2019-05-12T18:06:44.789Z,1.93
2019-05-12T18:11:52.565Z,1.57
2019-05-12T18:17:08.478Z,1.53
2019-05-12T18:22:09.259Z,1.30
2019-05-12T18:27:15.278Z,1.60
2019-05-12T18:32:20.772Z,1.47
2019-05-12T18:37:28.736Z,1.90
2019-05-12T18:42:34.454Z,1.70
2019-05-12T18:47:44.038Z,1.73
2019-05-12T18:52:50.085Z,1.53
2019-05-12T18:57:57.633Z,1.73
2019-05-12T19:03:08.069Z,2.23
2019-05-12T19:08:10.864Z,1.73
2019-05-12T19:13:16.185Z,2.07
2019-05-12T19:18:24.430Z,1.50
2019-05-12T19:23:35.047Z,1.70
2019-05-12T19:28:44.754Z,1.77
2019-05-12T19:33:53.019Z,1.40
2019-05-12T19:38:54.378Z,1.70
2019-05-12T19:43:59.397Z,1.40
2019-05-12T19:49:04.938Z,1.70
2019-05-12T19:54:10.693Z,1.87
2019-05-12T19:59:16.126Z,1.50
2019-05-12T20:04:33.510Z,1.57
2019-05-12T20:09:31.900Z,1.90
2019-05-12T20:14:40.617Z,1.30
2019-05-12T20:19:45.816Z,1.30
2019-05-12T20:24:53.683Z,1.50
2019-05-12T20:29:59.437Z,1.60
2019-05-12T20:35:04.848Z,1.23
2019-05-12T20:40:10.162Z,1.27
2019-05-12T20:45:25.943Z,1.57
2019-05-12T20:50:34.406Z,1.37
2019-05-12T20:55:41.409Z,1.90
2019-05-12T21:00:50.068Z,1.67
2019-05-12T21:05:58.100Z,1.70
2019-05-12T21:11:02.003Z,1.80
2019-05-12T21:16:16.338Z,1.40
2019-05-12T21:21:14.622Z,1.30
2019-05-12T21:26:21.897Z,1.60
2019-05-12T21:31:30.867Z,1.60
2019-05-12T21:36:34.442Z,1.50
2019-05-12T21:41:40.708Z,1.60
2019-05-12T21:46:57.106Z,1.90
2019-05-12T21:51:58.859Z,1.80
2019-05-12T21:57:00.875Z,1.67
2019-05-12T22:02:06.125Z,1.40
2019-05-12T22:07:11.439Z,2.03
2019-05-12T22:12:23.414Z,1.67
2019-05-12T22:17:27.619Z,1.83
2019-05-12T22:22:33.298Z,1.67
2019-05-12T22:27:38.739Z,1.80
2019-05-12T22:32:43.972Z,1.60
2019-05-12T22:37:49.161Z,1.67
2019-05-12T22:42:59.330Z,1.83
2019-05-12T22:48:04.042Z,1.70
2019-05-12T22:53:08.385Z,1.73
2019-05-12T22:58:20.672Z,2.57
2019-05-12T23:03:20.668Z,2.10
2019-05-12T23:08:25.918Z,2.80
2019-05-12T23:13:32.164Z,2.80
2019-05-12T23:18:38.685Z,1.77
2019-05-12T23:23:44.098Z,2.10
2019-05-12T23:28:50.302Z,2.27
2019-05-12T23:33:56.065Z,1.77
2019-05-12T23:39:02.809Z,1.87
2019-05-12T23:44:08.282Z,2.40
2019-05-12T23:49:14.381Z,2.00
2019-05-12T23:54:20.684Z,2.50
2019-05-12T23:59:25.968Z,1.97
